createdAt,value
2018-03-11T00:02:23.592Z,13.57
2018-03-11T00:04:51.058Z,12.53
2018-03-11T00:07:18.512Z,11.60
2018-03-11T00:09:45.972Z,13.40
2018-03-11T00:12:13.458Z,13.13
2018-03-11T00:14:41.702Z,13.30
2018-03-11T00:17:10.092Z,12.63
2018-03-11T00:19:37.834Z,14.32
2018-03-11T00:22:05.282Z,13.13
2018-03-11T00:24:32.725Z,12.07
2018-03-11T00:27:00.164Z,11.25
2018-03-11T00:29:28.323Z,11.20
2018-03-11T00:31:56.186Z,13.27
2018-03-11T00:34:23.643Z,11.63
2018-03-11T00:36:52.580Z,11.27
2018-03-11T00:39:20.970Z,10.45
2018-03-11T00:41:48.461Z,10.75
2018-03-11T00:44:15.937Z,12.80
2018-03-11T00:46:43.796Z,10.93
2018-03-11T00:49:11.248Z,13.90
2018-03-11T00:51:39.145Z,12.35
2018-03-11T00:54:06.593Z,11.88
2018-03-11T00:56:34.088Z,11.90
2018-03-11T00:59:01.574Z,10.68
2018-03-11T01:01:29.025Z,12.02
2018-03-11T01:03:57.599Z,10.95
2018-03-11T01:06:26.310Z,10.63
2018-03-11T01:08:53.793Z,10.48
2018-03-11T01:11:21.323Z,10.82
2018-03-11T01:13:48.780Z,11.63
2018-03-11T01:16:16.217Z,10.75
2018-03-11T01:18:43.660Z,10.00
2018-03-11T01:21:11.210Z,8.65
2018-03-11T01:23:38.640Z,10.30
2018-03-11T01:26:06.088Z,11.15
2018-03-11T01:28:33.584Z,10.10
2018-03-11T01:31:01.368Z,10.73
2018-03-11T01:33:28.823Z,10.95
2018-03-11T01:35:57.289Z,9.52
2018-03-11T01:38:24.726Z,9.23
2018-03-11T01:40:52.212Z,8.23
2018-03-11T01:43:19.632Z,8.70
2018-03-11T01:45:47.080Z,8.90
2018-03-11T01:48:14.512Z,8.77
2018-03-11T01:50:42.345Z,7.93
2018-03-11T01:53:09.801Z,7.80
2018-03-11T01:55:37.250Z,9.35
2018-03-11T01:58:04.697Z,9.32
2018-03-11T02:00:32.132Z,8.15
2018-03-11T02:02:59.564Z,8.45
2018-03-11T02:05:27.017Z,10.02
2018-03-11T02:07:54.982Z,8.40
2018-03-11T02:10:22.416Z,8.25
2018-03-11T02:12:49.849Z,7.87
2018-03-11T02:15:17.293Z,7.12
2018-03-11T02:17:44.721Z,7.62
2018-03-11T02:20:12.555Z,6.60
2018-03-11T02:22:39.989Z,5.85
2018-03-11T02:25:07.458Z,7.22
2018-03-11T02:27:34.919Z,6.65
2018-03-11T02:30:02.357Z,8.32
2018-03-11T02:32:29.793Z,7.80
2018-03-11T02:34:57.237Z,7.47
2018-03-11T02:37:25.056Z,8.60
2018-03-11T02:39:52.481Z,8.65
2018-03-11T02:42:19.922Z,6.87
2018-03-11T02:44:47.344Z,8.68
2018-03-11T02:47:14.801Z,8.80
2018-03-11T02:49:42.348Z,8.15
2018-03-11T02:52:09.789Z,7.90
2018-03-11T02:54:37.282Z,8.70
2018-03-11T02:57:04.879Z,7.43
2018-03-11T02:59:32.313Z,9.35
2018-03-11T03:02:00.152Z,7.60
2018-03-11T03:04:27.581Z,7.03
2018-03-11T03:06:55.025Z,7.60
2018-03-11T03:09:22.484Z,7.18
2018-03-11T03:11:49.931Z,6.75
2018-03-11T03:14:17.355Z,6.80
2018-03-11T03:16:45.195Z,6.80
2018-03-11T03:19:12.641Z,8.48
2018-03-11T03:21:40.085Z,7.62
2018-03-11T03:24:07.532Z,7.62
2018-03-11T03:26:34.969Z,9.15
2018-03-11T03:29:02.412Z,9.85
2018-03-11T03:31:29.849Z,11.20
2018-03-11T03:33:57.296Z,11.20
2018-03-11T03:36:24.733Z,11.32
2018-03-11T03:38:52.229Z,12.55
2018-03-11T03:41:20.041Z,11.68
2018-03-11T03:43:47.481Z,10.55
2018-03-11T03:46:14.921Z,10.75
2018-03-11T03:48:42.364Z,10.23
2018-03-11T03:51:10.188Z,12.10
2018-03-11T03:53:37.633Z,10.43
2018-03-11T03:56:05.118Z,11.50
2018-03-11T03:58:32.537Z,14.50
2018-03-11T04:00:59.981Z,13.80
2018-03-11T04:03:27.540Z,11.93
2018-03-11T04:05:55.002Z,11.07
2018-03-11T04:08:22.473Z,10.95
2018-03-11T04:10:49.888Z,12.48
2018-03-11T04:13:17.332Z,12.40
2018-03-11T04:15:44.772Z,13.57
2018-03-11T04:18:12.229Z,13.50
2018-03-11T04:20:39.661Z,12.27
2018-03-11T04:23:07.088Z,12.50
2018-03-11T04:25:34.533Z,13.43
2018-03-11T04:28:01.969Z,10.90
2018-03-11T04:30:29.404Z,11.82
2018-03-11T04:32:56.876Z,12.45
2018-03-11T04:35:24.324Z,11.82
2018-03-11T04:37:51.749Z,11.20
2018-03-11T04:40:19.188Z,10.88
2018-03-11T04:42:46.633Z,11.60
2018-03-11T04:45:15.308Z,11.25
2018-03-11T04:47:43.121Z,9.93
2018-03-11T04:50:10.574Z,11.48
2018-03-11T04:52:38.020Z,11.27
2018-03-11T04:55:05.457Z,9.48
2018-03-11T04:57:32.892Z,11.00
2018-03-11T05:00:00.336Z,9.95
2018-03-11T05:02:28.048Z,12.10
2018-03-11T05:04:55.491Z,11.52
2018-03-11T05:07:22.929Z,10.57
2018-03-11T05:09:50.401Z,11.70
2018-03-11T05:12:17.851Z,9.63
2018-03-11T05:14:45.290Z,9.82
2018-03-11T05:17:12.731Z,10.75
2018-03-11T05:19:40.162Z,10.50
2018-03-11T05:22:07.602Z,11.48
2018-03-11T05:24:35.867Z,11.70
2018-03-11T05:27:03.284Z,10.10
2018-03-11T05:29:31.111Z,10.15
2018-03-11T05:31:58.553Z,11.90
2018-03-11T05:34:25.981Z,12.20
2018-03-11T05:36:53.424Z,9.82
2018-03-11T05:39:20.928Z,10.90
2018-03-11T05:41:48.344Z,10.55
2018-03-11T05:44:15.783Z,11.93
2018-03-11T05:46:43.212Z,10.77
2018-03-11T05:49:10.677Z,12.00
2018-03-11T05:51:38.107Z,11.40
2018-03-11T05:54:05.596Z,10.05
2018-03-11T05:56:33.081Z,11.10
2018-03-11T05:59:00.916Z,10.55
2018-03-11T06:01:28.376Z,10.13
2018-03-11T06:03:57.295Z,10.82
2018-03-11T06:06:24.920Z,11.55
2018-03-11T06:08:52.419Z,10.48
2018-03-11T06:11:19.864Z,10.20
2018-03-11T06:13:47.520Z,10.25
2018-03-11T06:16:15.019Z,9.15
2018-03-11T06:18:42.544Z,11.10
2018-03-11T06:21:10.469Z,10.05
2018-03-11T06:23:38.333Z,10.98
2018-03-11T06:26:07.728Z,10.70
2018-03-11T06:28:35.173Z,10.77
2018-03-11T06:31:04.025Z,11.45
2018-03-11T06:33:32.670Z,10.07
2018-03-11T06:36:00.144Z,10.45
2018-03-11T06:38:28.550Z,11.80
2018-03-11T06:40:56.405Z,10.75
2018-03-11T06:43:24.023Z,12.27
2018-03-11T06:45:52.889Z,10.65
2018-03-11T06:48:20.355Z,10.75
2018-03-11T06:50:47.810Z,11.95
2018-03-11T06:53:15.305Z,10.70
2018-03-11T06:55:43.842Z,10.13
2018-03-11T06:58:11.293Z,12.65
2018-03-11T07:00:39.808Z,13.85
2018-03-11T07:03:07.614Z,13.20
2018-03-11T07:05:35.926Z,12.57
2018-03-11T07:08:09.781Z,10.70
2018-03-11T07:10:37.752Z,11.45
2018-03-11T07:13:05.928Z,11.00
2018-03-11T07:15:34.756Z,11.60
2018-03-11T07:18:03.216Z,12.95
2018-03-11T07:20:31.082Z,11.43
2018-03-11T07:22:59.004Z,9.35
2018-03-11T07:25:30.036Z,10.23
2018-03-11T07:28:04.600Z,10.07
2018-03-11T07:30:32.087Z,11.07
2018-03-11T07:33:00.286Z,11.05
2018-03-11T07:35:27.777Z,11.07
2018-03-11T07:37:57.994Z,10.88
2018-03-11T07:40:26.149Z,12.63
2018-03-11T07:42:54.731Z,12.37
2018-03-11T07:45:22.317Z,13.18
2018-03-11T07:47:50.599Z,11.53
2018-03-11T07:50:18.878Z,8.60
2018-03-11T07:52:46.729Z,8.10
2018-03-11T07:55:14.601Z,8.85
2018-03-11T07:57:43.775Z,7.47
2018-03-11T08:00:12.103Z,8.60
2018-03-11T08:02:40.589Z,8.40
2018-03-11T08:05:09.210Z,7.68
2018-03-11T08:07:36.652Z,7.27
2018-03-11T08:10:04.099Z,6.60
2018-03-11T08:12:32.073Z,6.50
2018-03-11T08:14:59.524Z,7.65
2018-03-11T08:17:28.411Z,6.95
2018-03-11T08:19:56.259Z,7.37
2018-03-11T08:22:24.155Z,7.28
2018-03-11T08:24:51.630Z,6.72
2018-03-11T08:27:19.738Z,7.93
2018-03-11T08:29:47.225Z,7.95
2018-03-11T08:32:14.676Z,7.47
2018-03-11T08:34:42.485Z,8.20
2018-03-11T08:37:09.975Z,6.68
2018-03-11T08:39:37.908Z,8.65
2018-03-11T08:42:06.074Z,8.05
2018-03-11T08:44:34.615Z,7.35
2018-03-11T08:47:04.577Z,7.32
2018-03-11T08:49:33.432Z,6.25
2018-03-11T08:52:02.358Z,6.60
2018-03-11T08:54:30.840Z,6.97
2018-03-11T08:56:58.296Z,6.87
2018-03-11T08:59:25.764Z,6.00
2018-03-11T09:01:54.899Z,6.30
2018-03-11T09:04:23.545Z,6.20
2018-03-11T09:06:51.006Z,6.70
2018-03-11T09:09:18.445Z,6.20
2018-03-11T09:11:45.873Z,6.10
2018-03-11T09:14:13.303Z,6.50
2018-03-11T09:16:40.744Z,5.60
2018-03-11T09:19:08.204Z,6.60
2018-03-11T09:21:35.653Z,6.37
2018-03-11T09:24:03.092Z,5.97
2018-03-11T09:26:30.541Z,5.97
2018-03-11T09:28:57.984Z,5.27
2018-03-11T09:31:25.450Z,5.93
2018-03-11T09:33:52.881Z,5.37
2018-03-11T09:36:20.352Z,4.57
2018-03-11T09:38:47.782Z,4.72
2018-03-11T09:41:15.615Z,4.63
2018-03-11T09:43:43.069Z,5.20
2018-03-11T09:46:10.519Z,4.80
2018-03-11T09:48:37.945Z,5.30
2018-03-11T09:51:05.378Z,4.70
2018-03-11T09:53:32.804Z,3.83
2018-03-11T09:56:00.242Z,4.70
2018-03-11T09:58:27.676Z,4.40
2018-03-11T10:00:55.150Z,4.80
2018-03-11T10:03:22.608Z,4.03
2018-03-11T10:05:50.361Z,5.10
2018-03-11T10:08:17.832Z,5.20
2018-03-11T10:10:45.294Z,4.30
2018-03-11T10:13:12.787Z,4.57
2018-03-11T10:15:40.620Z,4.90
2018-03-11T10:18:08.077Z,4.30
2018-03-11T10:20:35.541Z,3.90
2018-03-11T10:23:03.070Z,3.90
2018-03-11T10:25:30.529Z,4.10
2018-03-11T10:27:58.002Z,3.70
2018-03-11T10:30:25.452Z,4.47
2018-03-11T10:32:52.900Z,4.17
2018-03-11T10:35:20.369Z,4.40
2018-03-11T10:37:47.824Z,4.20
2018-03-11T10:40:15.375Z,3.93
2018-03-11T10:42:42.839Z,4.90
2018-03-11T10:45:10.269Z,4.83
2018-03-11T10:47:37.713Z,4.67
2018-03-11T10:50:05.141Z,4.83
2018-03-11T10:52:32.568Z,4.50
2018-03-11T10:55:00.010Z,4.67
2018-03-11T10:57:27.425Z,4.00
2018-03-11T10:59:55.263Z,4.40
2018-03-11T11:02:27.529Z,4.10
2018-03-11T11:04:59.948Z,3.58
2018-03-11T11:07:27.433Z,4.67
2018-03-11T11:09:54.902Z,4.60
2018-03-11T11:12:22.348Z,4.30
2018-03-11T11:14:49.816Z,5.20
2018-03-11T11:17:17.248Z,4.20
2018-03-11T11:19:44.676Z,4.10
2018-03-11T11:22:12.572Z,3.77
2018-03-11T11:24:40.028Z,4.23
2018-03-11T11:27:07.475Z,4.90
2018-03-11T11:29:34.912Z,4.00
2018-03-11T11:32:02.353Z,4.23
2018-03-11T11:34:29.786Z,5.27
2018-03-11T11:36:57.213Z,4.23
2018-03-11T11:39:24.652Z,4.07
2018-03-11T11:41:52.076Z,4.20
2018-03-11T11:44:19.496Z,4.20
2018-03-11T11:46:46.941Z,4.20
2018-03-11T11:49:14.386Z,4.03
2018-03-11T11:51:41.837Z,4.43
2018-03-11T11:54:09.261Z,4.30
2018-03-11T11:56:37.089Z,4.53
2018-03-11T11:59:04.517Z,4.10
2018-03-11T12:01:31.948Z,4.70
2018-03-11T12:03:59.780Z,5.27
2018-03-11T12:06:27.220Z,4.60
2018-03-11T12:08:54.660Z,5.17
2018-03-11T12:11:22.117Z,5.20
2018-03-11T12:13:49.566Z,4.80
2018-03-11T12:16:17.033Z,4.70
2018-03-11T12:18:44.468Z,4.77
2018-03-11T12:21:11.901Z,5.83
2018-03-11T12:23:39.330Z,5.80
2018-03-11T12:26:06.763Z,5.07
2018-03-11T12:28:34.205Z,5.07
2018-03-11T12:31:01.648Z,5.77
2018-03-11T12:33:29.456Z,5.33
2018-03-11T12:35:56.936Z,5.30
2018-03-11T12:38:24.381Z,7.80
2018-03-11T12:40:51.820Z,7.20
2018-03-11T12:43:19.284Z,8.07
2018-03-11T12:45:46.944Z,6.47
2018-03-11T12:48:14.392Z,7.87
2018-03-11T12:50:41.823Z,6.60
2018-03-11T12:53:09.257Z,6.20
2018-03-11T12:55:36.681Z,5.50
2018-03-11T12:58:04.163Z,5.47
2018-03-11T13:00:31.549Z,5.13
2018-03-11T13:02:58.986Z,6.13
2018-03-11T13:05:26.810Z,5.37
2018-03-11T13:07:54.330Z,4.57
2018-03-11T13:10:21.764Z,4.80
2018-03-11T13:12:49.593Z,4.07
2018-03-11T13:15:17.071Z,4.10
2018-03-11T13:17:45.029Z,3.90
2018-03-11T13:20:24.148Z,3.70
2018-03-11T13:22:51.573Z,4.37
2018-03-11T13:25:19.009Z,4.13
2018-03-11T13:27:58.376Z,3.90
2018-03-11T13:30:25.793Z,3.70
2018-03-11T13:33:05.553Z,4.10
2018-03-11T13:35:32.991Z,4.80
2018-03-11T13:38:12.567Z,3.50
2018-03-11T13:40:41.776Z,3.37
2018-03-11T13:43:09.230Z,2.80
2018-03-11T13:45:48.474Z,2.70
2018-03-11T13:48:15.922Z,2.43
2018-03-11T13:50:43.339Z,3.33
2018-03-11T13:53:23.053Z,2.20
2018-03-11T13:55:50.472Z,2.57
2018-03-11T14:01:19.386Z,2.27
2018-03-11T14:03:46.831Z,2.10
2018-03-11T14:06:14.245Z,1.47
2018-03-11T14:08:41.693Z,1.37
2018-03-11T14:11:09.133Z,2.00
2018-03-11T14:13:36.564Z,1.90
2018-03-11T14:16:04.045Z,1.20
2018-03-11T14:18:31.456Z,1.10
2018-03-11T14:20:58.881Z,1.50
2018-03-11T14:23:29.268Z,1.30
2018-03-11T14:28:04.043Z,1.50
2018-03-11T14:30:31.464Z,1.20
2018-03-11T14:32:58.909Z,0.83
2018-03-11T14:35:26.329Z,1.10
2018-03-11T14:37:53.764Z,1.20
2018-03-11T14:40:21.192Z,0.93
2018-03-11T14:42:48.629Z,1.20
2018-03-11T14:45:16.057Z,0.90
2018-03-11T14:47:43.944Z,1.63
2018-03-11T14:50:11.892Z,1.10
2018-03-11T14:52:39.715Z,0.80
2018-03-11T14:55:08.486Z,0.90
2018-03-11T14:57:36.991Z,0.80
2018-03-11T15:00:04.437Z,0.80
2018-03-11T15:02:31.899Z,0.73
2018-03-11T15:04:59.393Z,0.50
2018-03-11T15:10:24.694Z,0.67
2018-03-11T15:12:52.314Z,1.03
2018-03-11T15:15:19.721Z,0.80
2018-03-11T15:17:47.552Z,0.73
2018-03-11T15:20:14.989Z,0.80
2018-03-11T15:22:42.412Z,0.50
2018-03-11T15:25:09.850Z,0.80
2018-03-11T15:27:37.276Z,0.63
2018-03-11T15:30:04.721Z,0.80
2018-03-11T15:32:32.154Z,0.60
2018-03-11T15:34:59.587Z,0.63
2018-03-11T15:37:27.429Z,0.60
2018-03-11T15:39:54.876Z,0.80
2018-03-11T15:42:22.376Z,0.60
2018-03-11T15:44:50.234Z,1.00
2018-03-11T15:47:18.063Z,0.80
2018-03-11T15:49:45.521Z,0.87
2018-03-11T15:52:12.981Z,0.80
2018-03-11T15:54:40.457Z,0.60
2018-03-11T15:57:07.893Z,0.70
2018-03-11T15:59:35.332Z,0.70
2018-03-11T16:02:02.769Z,0.83
2018-03-11T16:04:30.201Z,0.73
2018-03-11T16:06:57.625Z,0.97
2018-03-11T16:09:25.060Z,0.60
2018-03-11T16:11:52.486Z,0.80
2018-03-11T16:14:19.948Z,0.67
2018-03-11T16:16:47.753Z,1.30
2018-03-11T16:19:15.185Z,0.80
2018-03-11T16:21:42.613Z,1.50
2018-03-11T16:24:10.049Z,1.30
2018-03-11T16:26:37.874Z,1.10
2018-03-11T16:29:05.307Z,1.03
2018-03-11T16:31:32.728Z,0.77
2018-03-11T16:34:00.642Z,0.90
2018-03-11T16:36:28.088Z,0.80
2018-03-11T16:38:55.525Z,1.07
2018-03-11T16:41:23.336Z,0.90
2018-03-11T16:43:50.892Z,0.73
2018-03-11T16:46:18.325Z,0.90
2018-03-11T16:48:45.789Z,0.90
2018-03-11T16:51:13.225Z,0.87
2018-03-11T16:53:40.660Z,1.40
2018-03-11T16:56:08.488Z,1.93
2018-03-11T16:58:35.978Z,1.40
2018-03-11T17:01:03.349Z,1.67
2018-03-11T17:03:30.783Z,1.20
2018-03-11T17:05:58.220Z,1.53
2018-03-11T17:08:25.693Z,1.80
2018-03-11T17:10:53.159Z,2.53
2018-03-11T17:14:39.309Z,2.37
2018-03-11T17:17:06.736Z,1.57
2018-03-11T17:19:34.579Z,1.40
2018-03-11T17:22:02.021Z,1.37
2018-03-11T17:24:29.461Z,1.30
2018-03-11T17:26:56.915Z,2.20
2018-03-11T17:29:24.345Z,2.33
2018-03-11T17:31:51.768Z,1.97
2018-03-11T17:34:19.208Z,2.33
2018-03-11T17:36:47.687Z,2.23
2018-03-11T17:41:49.033Z,2.87
2018-03-11T17:44:18.424Z,2.50
2018-03-11T17:46:50.489Z,3.00
2018-03-11T17:49:17.952Z,3.23
2018-03-11T17:51:45.805Z,3.93
2018-03-11T17:54:30.162Z,3.13
2018-03-11T17:59:09.993Z,4.00
2018-03-11T18:01:39.491Z,4.03
2018-03-11T18:04:08.050Z,3.10
2018-03-11T18:20:25.504Z,3.07
2018-03-11T18:22:52.985Z,3.77
2018-03-11T18:25:32.783Z,3.10
2018-03-11T18:30:39.781Z,4.30
2018-03-11T18:33:08.834Z,3.87
2018-03-11T18:35:39.755Z,5.33
2018-03-11T18:38:08.350Z,4.17
2018-03-11T18:40:39.946Z,5.00
2018-03-11T18:43:08.699Z,4.37
2018-03-11T18:45:39.914Z,4.17
2018-03-11T18:48:11.331Z,4.33
2018-03-11T18:50:38.769Z,4.23
2018-03-11T18:53:14.648Z,5.07
2018-03-11T18:55:44.200Z,5.10
2018-03-11T18:58:14.298Z,5.10
2018-03-11T19:00:46.054Z,4.63
2018-03-11T19:03:15.569Z,5.03
2018-03-11T19:05:44.002Z,4.40
2018-03-11T19:08:12.757Z,5.67
2018-03-11T19:10:42.637Z,5.17
2018-03-11T19:13:10.620Z,5.50
2018-03-11T19:15:41.436Z,4.77
2018-03-11T19:18:11.601Z,4.83
2018-03-11T19:20:42.408Z,5.10
2018-03-11T19:23:11.178Z,4.40
2018-03-11T19:25:38.938Z,4.13
2018-03-11T19:28:08.014Z,4.20
2018-03-11T19:30:35.464Z,4.80
2018-03-11T19:33:04.512Z,5.77
2018-03-11T19:35:32.019Z,4.57
2018-03-11T19:37:59.498Z,4.93
2018-03-11T19:40:26.960Z,4.80
2018-03-11T19:42:57.287Z,4.97
2018-03-11T19:45:25.975Z,5.10
2018-03-11T19:47:53.863Z,5.33
2018-03-11T19:50:23.291Z,5.60
2018-03-11T19:52:51.591Z,5.50
2018-03-11T19:55:19.584Z,5.67
2018-03-11T19:57:47.038Z,6.20
2018-03-11T20:00:14.565Z,7.05
2018-03-11T20:02:43.853Z,5.68
2018-03-11T20:05:12.625Z,6.30
2018-03-11T20:07:41.053Z,5.00
2018-03-11T20:10:08.524Z,5.30
2018-03-11T20:12:37.984Z,4.53
2018-03-11T20:15:09.067Z,4.93
2018-03-11T20:17:41.264Z,4.30
2018-03-11T20:20:13.582Z,4.40
2018-03-11T20:22:44.668Z,5.43
2018-03-11T20:25:12.943Z,4.87
2018-03-11T20:27:47.591Z,5.60
2018-03-11T20:30:15.074Z,3.80
2018-03-11T20:32:43.408Z,4.60
2018-03-11T20:35:12.194Z,3.90
2018-03-11T20:37:40.840Z,4.57
2018-03-11T20:40:10.049Z,5.17
2018-03-11T20:42:41.213Z,5.13
2018-03-11T20:45:09.214Z,4.23
2018-03-11T20:47:39.002Z,4.93
2018-03-11T20:50:06.865Z,4.10
2018-03-11T20:52:35.351Z,3.80
2018-03-11T20:55:03.911Z,4.30
2018-03-11T20:57:48.352Z,4.87
2018-03-11T21:00:16.480Z,4.72
2018-03-11T21:02:45.935Z,3.80
2018-03-11T21:05:13.434Z,4.27
2018-03-11T21:07:43.638Z,4.18
2018-03-11T21:10:12.007Z,4.70
2018-03-11T21:12:40.092Z,5.33
2018-03-11T21:15:07.531Z,4.43
2018-03-11T21:17:35.014Z,3.80
2018-03-11T21:20:04.168Z,3.80
2018-03-11T21:22:32.051Z,3.93
2018-03-11T21:24:59.546Z,4.30
2018-03-11T21:27:26.999Z,5.20
2018-03-11T21:29:54.469Z,4.97
2018-03-11T21:32:21.958Z,3.83
2018-03-11T21:34:49.401Z,3.47
2018-03-11T21:37:16.889Z,4.50
2018-03-11T21:39:44.828Z,4.00
2018-03-11T21:42:12.823Z,3.57
2018-03-11T21:44:40.347Z,3.30
2018-03-11T21:47:09.109Z,3.60
2018-03-11T21:49:37.677Z,3.55
2018-03-11T21:52:05.170Z,3.47
2018-03-11T21:54:32.620Z,4.60
2018-03-11T21:57:00.326Z,3.35
2018-03-11T21:59:27.882Z,3.42
2018-03-11T22:01:55.549Z,4.05
2018-03-11T22:04:24.662Z,3.20
2018-03-11T22:06:53.712Z,3.80
2018-03-11T22:09:21.833Z,3.85
2018-03-11T22:11:49.303Z,4.12
2018-03-11T22:14:17.439Z,4.43
2018-03-11T22:16:45.271Z,4.43
2018-03-11T22:19:12.995Z,3.53
2018-03-11T22:21:40.529Z,3.90
2018-03-11T22:24:07.905Z,4.00
2018-03-11T22:26:35.368Z,3.20
2018-03-11T22:29:02.834Z,3.87
2018-03-11T22:31:30.279Z,3.83
2018-03-11T22:33:58.389Z,3.97
2018-03-11T22:36:25.865Z,3.60
2018-03-11T22:38:54.238Z,3.53
2018-03-11T22:41:22.560Z,3.63
2018-03-11T22:43:50.720Z,4.30
2018-03-11T22:46:18.174Z,3.43
2018-03-11T22:48:45.630Z,3.17
2018-03-11T22:51:13.093Z,3.50
2018-03-11T22:53:40.750Z,2.30
2018-03-11T22:56:08.209Z,3.27
2018-03-11T22:58:35.657Z,2.87
2018-03-11T23:01:03.141Z,2.65
2018-03-11T23:03:30.654Z,3.17
2018-03-11T23:06:05.773Z,4.00
2018-03-11T23:08:33.254Z,3.60
2018-03-11T23:11:00.705Z,6.15
2018-03-11T23:13:28.237Z,3.53
2018-03-11T23:15:55.692Z,3.35
2018-03-11T23:18:23.170Z,3.67
2018-03-11T23:20:50.654Z,4.05
2018-03-11T23:23:18.199Z,3.67
2018-03-11T23:25:46.034Z,3.70
2018-03-11T23:28:13.511Z,4.25
2018-03-11T23:30:41.047Z,2.95
2018-03-11T23:36:17.517Z,3.50
2018-03-11T23:38:44.960Z,3.62
2018-03-11T23:41:12.972Z,4.22
2018-03-11T23:43:41.083Z,3.70
2018-03-11T23:46:08.665Z,3.90
2018-03-11T23:48:36.932Z,4.18
2018-03-11T23:51:04.584Z,4.05
2018-03-11T23:53:33.763Z,3.78
2018-03-11T23:56:02.880Z,4.55
2018-03-11T23:58:31.413Z,4.25
